createdAt,value
2022-10-13T00:01:24.287Z,102547.87
2022-10-13T00:03:53.264Z,102544.36
2022-10-13T00:06:25.691Z,102540.74
2022-10-13T00:08:55.043Z,102535.34
2022-10-13T00:11:26.936Z,102538.05
2022-10-13T00:13:57.262Z,102539.52
2022-10-13T00:16:26.575Z,102533.44
2022-10-13T00:18:55.643Z,102541.10
2022-10-13T00:21:26.123Z,102537.40
2022-10-13T00:23:55.508Z,102540.05
2022-10-13T00:26:26.112Z,102541.85
2022-10-13T00:28:56.047Z,102516.60
2022-10-13T00:31:28.738Z,102545.48
2022-10-13T00:34:00.117Z,102544.83
2022-10-13T00:36:29.284Z,102545.85
2022-10-13T00:38:58.560Z,102541.36
2022-10-13T00:41:26.951Z,102538.48
2022-10-13T00:44:03.293Z,102537.30
2022-10-13T00:46:40.716Z,102537.16
2022-10-13T00:49:14.552Z,102534.58
2022-10-13T00:51:50.369Z,102534.64
2022-10-13T00:54:24.786Z,102535.26
2022-10-13T00:56:54.470Z,102533.34
2022-10-13T00:59:29.409Z,102534.60
2022-10-13T01:01:59.632Z,102534.19
2022-10-13T01:04:33.473Z,102532.92
2022-10-13T01:07:02.885Z,102534.48
2022-10-13T01:09:37.708Z,102534.53
2022-10-13T01:12:30.256Z,102533.43
2022-10-13T01:15:31.247Z,102533.67
2022-10-13T01:18:09.828Z,102535.26
2022-10-13T01:20:48.815Z,102534.64
2022-10-13T01:23:51.012Z,102529.92
2022-10-13T01:26:54.178Z,102533.23
2022-10-13T01:30:00.043Z,102529.17
2022-10-13T01:32:34.495Z,102525.60
2022-10-13T01:35:17.156Z,102523.66
2022-10-13T01:37:54.487Z,102523.89
2022-10-13T01:40:41.503Z,102515.90
2022-10-13T01:43:19.891Z,102518.23
2022-10-13T01:45:54.318Z,102517.82
2022-10-13T01:48:22.760Z,102518.40
2022-10-13T01:50:54.344Z,102511.32
2022-10-13T01:53:23.802Z,102512.25
2022-10-13T01:55:57.811Z,102506.55
2022-10-13T01:58:30.107Z,102507.68
2022-10-13T02:00:58.313Z,102508.83
2022-10-13T02:03:58.587Z,102508.14
2022-10-13T02:06:50.420Z,102506.67
2022-10-13T02:09:38.274Z,102496.80
2022-10-13T02:12:12.524Z,102498.38
2022-10-13T02:14:44.407Z,102500.72
2022-10-13T02:17:13.296Z,102497.42
2022-10-13T02:19:44.254Z,102495.71
2022-10-13T02:22:15.100Z,102497.26
2022-10-13T02:24:43.351Z,102495.83
2022-10-13T02:27:11.396Z,102494.27
2022-10-13T02:29:56.963Z,102490.08
2022-10-13T02:32:28.783Z,102487.41
2022-10-13T02:34:57.263Z,102482.39
2022-10-13T02:37:25.972Z,102472.51
2022-10-13T02:39:54.181Z,102481.37
2022-10-13T02:42:22.551Z,102483.15
2022-10-13T02:44:51.231Z,102479.73
2022-10-13T02:47:19.390Z,102478.45
2022-10-13T02:49:47.771Z,102476.56
2022-10-13T02:52:15.795Z,102479.23
2022-10-13T02:54:44.239Z,102477.64
2022-10-13T02:57:12.305Z,102470.13
2022-10-13T02:59:44.810Z,102474.12
2022-10-13T03:02:12.920Z,102471.48
2022-10-13T03:04:41.056Z,102473.60
2022-10-13T03:07:09.383Z,102471.48
2022-10-13T03:09:37.529Z,102469.49
2022-10-13T03:12:05.815Z,102468.90
2022-10-13T03:14:36.137Z,102457.20
2022-10-13T03:17:04.360Z,102470.10
2022-10-13T03:19:33.506Z,102465.97
2022-10-13T03:22:01.521Z,102463.10
2022-10-13T03:24:29.765Z,102460.06
2022-10-13T03:26:57.805Z,102462.02
2022-10-13T03:29:25.917Z,102450.55
2022-10-13T03:31:54.038Z,102463.80
2022-10-13T03:34:22.256Z,102457.75
2022-10-13T03:36:50.253Z,102456.83
2022-10-13T03:39:18.385Z,102458.21
2022-10-13T03:41:46.531Z,102458.91
2022-10-13T03:44:14.848Z,102457.36
2022-10-13T03:46:42.879Z,102456.25
2022-10-13T03:49:12.637Z,102453.27
2022-10-13T03:51:40.992Z,102453.91
2022-10-13T03:54:12.857Z,102454.70
2022-10-13T03:56:41.241Z,102448.81
2022-10-13T03:59:12.945Z,102450.80
2022-10-13T04:01:41.329Z,102452.10
2022-10-13T04:04:12.340Z,102452.46
2022-10-13T04:06:42.985Z,102450.67
2022-10-13T04:09:11.220Z,102447.10
2022-10-13T04:11:39.392Z,102450.77
2022-10-13T04:14:07.613Z,102450.26
2022-10-13T04:16:35.664Z,102451.15
2022-10-13T04:19:06.281Z,102450.23
2022-10-13T04:21:36.152Z,102445.14
2022-10-13T04:24:05.452Z,102447.60
2022-10-13T04:26:35.389Z,102444.61
2022-10-13T04:29:10.143Z,102439.84
2022-10-13T04:31:40.028Z,102442.42
2022-10-13T04:34:08.719Z,102441.27
2022-10-13T04:36:37.353Z,102440.84
2022-10-13T04:39:05.886Z,102435.71
2022-10-13T04:41:35.120Z,102438.74
2022-10-13T04:44:03.358Z,102440.50
2022-10-13T04:46:31.447Z,102438.48
2022-10-13T04:48:59.678Z,102439.14
2022-10-13T04:51:33.485Z,102439.25
2022-10-13T04:54:02.110Z,102435.86
2022-10-13T04:56:30.145Z,102438.61
2022-10-13T04:59:06.064Z,102442.92
2022-10-13T05:01:34.709Z,102442.59
2022-10-13T05:04:04.541Z,102423.13
2022-10-13T05:06:53.413Z,102447.51
2022-10-13T05:09:27.324Z,102448.54
2022-10-13T05:11:55.690Z,102447.92
2022-10-13T05:14:24.157Z,102446.04
2022-10-13T05:16:52.300Z,102438.82
2022-10-13T05:19:20.592Z,102437.70
2022-10-13T05:21:50.488Z,102439.21
2022-10-13T05:24:20.870Z,102434.85
2022-10-13T05:26:50.887Z,102435.61
2022-10-13T05:29:19.051Z,102434.85
2022-10-13T05:31:47.532Z,102431.91
2022-10-13T05:34:16.236Z,102431.48
2022-10-13T05:36:44.504Z,102430.75
2022-10-13T05:39:13.229Z,102430.05
2022-10-13T05:41:41.748Z,102426.48
2022-10-13T05:44:14.838Z,102424.66
2022-10-13T05:46:54.516Z,102420.13
2022-10-13T05:49:22.607Z,102417.71
2022-10-13T05:51:54.937Z,102420.50
2022-10-13T05:54:30.224Z,102418.25
2022-10-13T05:57:11.280Z,102391.12
2022-10-13T05:59:43.455Z,102419.27
2022-10-13T06:02:13.940Z,102417.45
2022-10-13T06:04:46.743Z,102418.39
2022-10-13T06:07:14.873Z,102418.23
2022-10-13T06:09:44.539Z,102417.32
2022-10-13T06:12:13.216Z,102407.69
2022-10-13T06:14:42.736Z,102404.61
2022-10-13T06:17:13.430Z,102417.73
2022-10-13T06:19:45.538Z,102415.96
2022-10-13T06:22:13.722Z,102416.54
2022-10-13T06:24:41.925Z,102419.86
2022-10-13T06:27:11.208Z,102417.22
2022-10-13T06:29:39.836Z,102414.98
2022-10-13T06:32:08.029Z,102416.67
2022-10-13T06:34:36.684Z,102416.39
2022-10-13T06:37:05.041Z,102412.87
2022-10-13T06:39:33.477Z,102413.73
2022-10-13T06:42:04.558Z,102407.16
2022-10-13T06:44:35.581Z,102409.16
2022-10-13T06:47:05.509Z,102406.14
2022-10-13T06:49:33.986Z,102404.43
2022-10-13T06:52:02.313Z,102406.08
2022-10-13T06:54:31.124Z,102398.57
2022-10-13T06:56:59.362Z,102398.20
2022-10-13T06:59:28.006Z,102394.63
2022-10-13T07:01:56.423Z,102397.23
2022-10-13T07:04:26.044Z,102395.86
2022-10-13T07:06:56.504Z,102396.34
2022-10-13T07:09:24.773Z,102399.09
2022-10-13T07:11:53.049Z,102402.82
2022-10-13T07:14:21.845Z,102406.15
2022-10-13T07:16:50.181Z,102391.98
2022-10-13T07:19:18.442Z,102401.64
2022-10-13T07:21:46.599Z,102397.45
2022-10-13T07:24:14.867Z,102398.77
2022-10-13T07:26:43.289Z,102398.09
2022-10-13T07:29:11.917Z,102391.48
2022-10-13T07:31:40.398Z,102391.09
2022-10-13T07:34:08.681Z,102392.21
2022-10-13T07:36:38.557Z,102389.70
2022-10-13T07:39:07.169Z,102383.34
2022-10-13T07:41:36.737Z,102375.12
2022-10-13T07:44:05.585Z,102365.32
2022-10-13T07:46:34.192Z,102377.38
2022-10-13T07:49:02.322Z,102374.82
2022-10-13T07:51:30.957Z,102371.54
2022-10-13T07:53:59.598Z,102364.20
2022-10-13T07:56:27.982Z,102357.11
2022-10-13T07:58:56.181Z,102353.20
2022-10-13T08:01:24.766Z,102349.74
2022-10-13T08:03:55.829Z,102328.76
2022-10-13T08:06:24.262Z,102341.84
2022-10-13T08:08:55.513Z,102324.09
2022-10-13T08:11:24.809Z,102342.20
2022-10-13T08:13:56.153Z,102340.25
2022-10-13T08:16:24.737Z,102336.42
2022-10-13T08:18:53.325Z,102311.47
2022-10-13T08:21:57.762Z,102326.12
2022-10-13T08:24:15.801Z,102324.64
2022-10-13T08:26:46.733Z,102329.36
2022-10-13T08:29:21.771Z,102327.79
2022-10-13T08:31:54.793Z,102324.73
2022-10-13T08:34:24.818Z,102315.02
2022-10-13T08:36:56.489Z,102322.46
2022-10-13T08:39:25.331Z,102315.20
2022-10-13T08:41:57.510Z,102308.16
2022-10-13T08:47:47.389Z,102300.67
2022-10-13T08:50:19.728Z,102299.96
2022-10-13T08:52:58.618Z,102297.67
2022-10-13T08:55:47.741Z,102300.09
2022-10-13T08:58:26.028Z,102297.45
2022-10-13T09:01:06.894Z,102290.59
2022-10-13T09:03:52.675Z,102281.20
2022-10-13T09:06:32.000Z,102281.37
2022-10-13T09:09:15.690Z,102268.77
2022-10-13T09:11:48.258Z,102271.23
2022-10-13T09:14:22.312Z,102266.20
2022-10-13T09:16:52.916Z,102258.20
2022-10-13T09:19:27.569Z,102256.42
2022-10-13T09:21:59.047Z,102261.42
2022-10-13T09:24:27.745Z,102258.02
2022-10-13T09:27:12.378Z,102257.48
2022-10-13T09:29:41.765Z,102250.30
2022-10-13T09:32:24.009Z,102252.12
2022-10-13T09:35:23.313Z,102245.81
2022-10-13T09:38:22.153Z,102244.55
2022-10-13T09:41:00.451Z,102243.80
2022-10-13T09:43:43.926Z,102240.15
2022-10-13T09:46:24.100Z,102238.50
2022-10-13T09:48:55.675Z,102243.48
2022-10-13T09:51:42.053Z,102244.22
2022-10-13T09:54:42.011Z,102246.08
2022-10-13T09:57:31.237Z,102242.50
2022-10-13T10:00:14.994Z,102239.89
2022-10-13T10:02:43.368Z,102236.70
2022-10-13T10:05:23.719Z,102238.14
2022-10-13T10:07:54.280Z,102246.45
2022-10-13T10:10:33.344Z,102242.23
2022-10-13T10:13:04.330Z,102240.77
2022-10-13T10:16:07.732Z,102237.90
2022-10-13T10:18:58.935Z,102232.61
2022-10-13T10:21:43.404Z,102225.27
2022-10-13T10:24:25.651Z,102229.35
2022-10-13T10:27:06.237Z,102225.42
2022-10-13T10:29:48.744Z,102212.91
2022-10-13T10:32:29.020Z,102223.98
2022-10-13T10:35:02.460Z,102225.58
2022-10-13T10:37:52.391Z,102214.66
2022-10-13T10:40:35.045Z,102212.27
2022-10-13T10:43:21.855Z,102208.52
2022-10-13T10:45:50.355Z,102207.19
2022-10-13T10:48:25.125Z,102204.88
2022-10-13T10:50:54.715Z,102204.20
2022-10-13T10:53:49.241Z,102201.26
2022-10-13T10:56:30.019Z,102201.94
2022-10-13T10:59:26.768Z,102196.59
2022-10-13T11:02:04.984Z,102191.37
2022-10-13T11:04:46.035Z,102184.70
2022-10-13T11:07:34.699Z,102182.98
2022-10-13T11:10:05.337Z,102176.55
2022-10-13T11:13:09.228Z,102167.85
2022-10-13T11:15:47.094Z,102166.77
2022-10-13T11:18:53.008Z,102154.36
2022-10-13T11:21:22.472Z,102160.06
2022-10-13T11:23:50.925Z,102161.80
2022-10-13T11:26:31.372Z,102161.14
2022-10-13T11:29:00.070Z,102157.09
2022-10-13T11:31:48.361Z,102153.71
2022-10-13T11:34:28.556Z,102154.80
2022-10-13T11:37:00.769Z,102146.41
2022-10-13T11:39:41.384Z,102146.70
2022-10-13T11:42:12.382Z,102143.52
2022-10-13T11:44:58.763Z,102131.70
2022-10-13T11:47:55.967Z,102119.66
2022-10-13T11:50:50.861Z,102114.38
2022-10-13T11:53:24.816Z,102122.86
2022-10-13T11:56:03.103Z,102119.11
2022-10-13T11:58:33.897Z,102116.86
2022-10-13T12:01:12.100Z,102114.61
2022-10-13T12:03:45.172Z,102113.92
2022-10-13T12:06:34.222Z,102106.56
2022-10-13T12:09:20.049Z,102099.15
2022-10-13T12:11:57.232Z,102092.40
2022-10-13T12:17:27.449Z,102091.77
2022-10-13T12:19:59.239Z,102091.64
2022-10-13T12:22:30.868Z,102086.95
2022-10-13T12:25:07.203Z,102093.56
2022-10-13T12:27:50.565Z,102089.84
2022-10-13T12:30:49.799Z,102084.42
2022-10-13T12:33:29.895Z,102081.64
2022-10-13T12:36:19.075Z,102076.19
2022-10-13T12:38:53.133Z,102076.14
2022-10-13T12:41:28.792Z,102068.98
2022-10-13T12:44:05.768Z,102068.05
2022-10-13T12:46:39.903Z,102064.14
2022-10-13T12:49:14.685Z,102065.75
2022-10-13T12:51:46.087Z,102063.15
2022-10-13T12:54:24.575Z,102064.18
2022-10-13T12:56:57.286Z,102065.20
2022-10-13T12:59:27.939Z,102061.39
2022-10-13T13:02:02.131Z,102061.69
2022-10-13T13:04:32.889Z,102061.21
2022-10-13T13:07:03.699Z,102060.54
2022-10-13T13:09:39.303Z,102051.89
2022-10-13T13:12:13.231Z,102050.33
2022-10-13T13:14:43.349Z,102035.45
2022-10-13T13:17:12.891Z,102022.88
2022-10-13T13:19:43.506Z,102036.55
2022-10-13T13:22:12.442Z,102041.64
2022-10-13T13:24:40.949Z,102037.71
2022-10-13T13:27:39.206Z,102038.80
2022-10-13T13:30:15.786Z,102032.89
2022-10-13T13:32:43.790Z,102027.13
2022-10-13T13:35:11.930Z,102028.16
2022-10-13T13:37:49.952Z,102031.91
2022-10-13T13:40:23.662Z,102031.76
2022-10-13T13:42:52.095Z,102033.90
2022-10-13T13:45:27.044Z,102030.62
2022-10-13T13:48:00.353Z,102022.54
2022-10-13T13:50:34.385Z,102032.19
2022-10-13T13:53:03.015Z,102031.50
2022-10-13T13:55:31.491Z,102035.13
2022-10-13T13:57:59.549Z,102028.23
2022-10-13T14:00:27.929Z,102029.64
2022-10-13T14:02:57.357Z,102026.70
2022-10-13T14:05:25.834Z,102024.05
2022-10-13T14:07:56.845Z,102025.14
2022-10-13T14:10:26.098Z,102029.40
2022-10-13T14:12:54.219Z,102030.48
2022-10-13T14:15:25.845Z,102024.58
2022-10-13T14:17:57.356Z,102023.27
2022-10-13T14:20:25.456Z,102018.09
2022-10-13T14:22:53.883Z,102020.08
2022-10-13T14:25:22.439Z,102016.39
2022-10-13T14:27:50.832Z,102013.30
2022-10-13T14:30:19.112Z,102011.41
2022-10-13T14:32:47.179Z,102011.95
2022-10-13T14:35:15.258Z,102015.96
2022-10-13T14:37:43.491Z,102019.81
2022-10-13T14:40:11.568Z,102014.01
2022-10-13T14:42:39.963Z,102010.96
2022-10-13T14:45:16.051Z,102009.96
2022-10-13T14:47:45.262Z,102012.19
2022-10-13T14:50:13.875Z,102008.50
2022-10-13T14:52:42.128Z,102013.83
2022-10-13T14:55:10.231Z,102012.30
2022-10-13T14:57:39.311Z,102008.67
2022-10-13T15:00:08.059Z,102006.20
2022-10-13T15:02:37.073Z,102006.30
2022-10-13T15:05:06.627Z,102006.17
2022-10-13T15:07:38.972Z,102009.13
2022-10-13T15:10:09.424Z,102004.71
2022-10-13T15:12:37.584Z,102001.58
2022-10-13T15:15:06.305Z,102007.67
2022-10-13T15:17:34.751Z,102008.67
2022-10-13T15:20:04.829Z,102005.68
2022-10-13T15:22:32.909Z,102005.25
2022-10-13T15:25:01.721Z,102001.77
2022-10-13T15:27:29.977Z,101999.10
2022-10-13T15:29:58.259Z,101995.54
2022-10-13T15:32:26.654Z,101997.90
2022-10-13T15:35:01.969Z,102002.10
2022-10-13T15:37:31.433Z,101991.44
2022-10-13T15:39:59.575Z,101994.34
2022-10-13T15:42:27.609Z,101994.85
2022-10-13T15:45:11.813Z,101997.43
2022-10-13T15:47:40.349Z,101995.02
2022-10-13T15:50:10.702Z,101991.65
2022-10-13T15:52:40.531Z,101991.17
2022-10-13T15:55:11.580Z,101992.35
2022-10-13T15:57:40.589Z,101989.51
2022-10-13T16:00:11.317Z,101994.16
2022-10-13T16:02:44.023Z,101992.91
2022-10-13T16:05:13.368Z,101986.21
2022-10-13T16:07:42.077Z,101987.65
2022-10-13T16:10:12.562Z,101985.10
2022-10-13T16:12:46.835Z,101983.98
2022-10-13T16:15:18.292Z,101983.70
2022-10-13T16:17:46.744Z,101985.13
2022-10-13T16:20:15.201Z,101989.92
2022-10-13T16:22:43.468Z,101996.35
2022-10-13T16:25:12.493Z,101996.09
2022-10-13T16:27:44.227Z,101993.56
2022-10-13T16:30:13.438Z,101993.33
2022-10-13T16:32:42.000Z,101993.16
2022-10-13T16:35:10.393Z,101996.67
2022-10-13T16:37:38.670Z,101993.95
2022-10-13T16:40:07.721Z,101977.50
2022-10-13T16:42:36.760Z,101996.57
2022-10-13T16:45:05.656Z,101994.71
2022-10-13T16:47:33.953Z,101996.80
2022-10-13T16:50:06.256Z,101997.29
2022-10-13T16:52:34.801Z,101997.98
2022-10-13T16:55:04.556Z,101994.33
2022-10-13T16:57:33.475Z,101989.81
2022-10-13T17:00:02.005Z,101991.18
2022-10-13T17:02:30.508Z,101989.36
2022-10-13T17:04:58.706Z,101991.70
2022-10-13T17:07:27.065Z,101991.38
2022-10-13T17:09:56.020Z,101993.52
2022-10-13T17:12:24.237Z,101990.15
2022-10-13T17:14:52.544Z,101989.73
2022-10-13T17:17:21.145Z,101988.25
2022-10-13T17:19:50.517Z,101989.58
2022-10-13T17:22:18.848Z,101984.89
2022-10-13T17:24:48.570Z,101986.55
2022-10-13T17:27:17.158Z,101969.59
2022-10-13T17:29:45.699Z,101984.49
2022-10-13T17:32:13.954Z,101966.77
2022-10-13T17:34:42.156Z,101983.74
2022-10-13T17:37:10.675Z,101967.61
2022-10-13T17:39:39.474Z,101979.70
2022-10-13T17:42:08.012Z,101978.04
2022-10-13T17:44:36.272Z,101972.79
2022-10-13T17:47:05.064Z,101973.25
2022-10-13T17:49:33.352Z,101972.16
2022-10-13T17:52:01.928Z,101971.83
2022-10-13T17:54:30.604Z,101971.89
2022-10-13T17:56:59.007Z,101971.89
2022-10-13T17:59:27.307Z,101969.03
2022-10-13T18:01:56.117Z,101973.83
2022-10-13T18:04:24.403Z,101969.63
2022-10-13T18:06:53.580Z,101968.86
2022-10-13T18:09:24.680Z,101974.04
2022-10-13T18:11:54.632Z,101970.02
2022-10-13T18:14:24.607Z,101971.85
2022-10-13T18:16:53.664Z,101971.14
2022-10-13T18:19:22.344Z,101974.62
2022-10-13T18:21:52.970Z,101971.60
2022-10-13T18:24:21.553Z,101970.41
2022-10-13T18:26:49.740Z,101970.15
2022-10-13T18:29:17.988Z,101966.30
2022-10-13T18:31:46.801Z,101966.61
2022-10-13T18:34:18.682Z,101962.45
2022-10-13T18:36:49.379Z,101959.60
2022-10-13T18:39:20.204Z,101956.64
2022-10-13T18:41:50.829Z,101958.20
2022-10-13T18:44:20.384Z,101957.67
2022-10-13T18:46:53.961Z,101956.65
2022-10-13T18:49:31.096Z,101957.55
2022-10-13T18:52:01.480Z,101953.08
2022-10-13T18:54:30.773Z,101944.77
2022-10-13T18:56:59.339Z,101954.30
2022-10-13T18:59:27.715Z,101957.22
2022-10-13T19:01:55.892Z,101958.83
2022-10-13T19:04:26.321Z,101957.84
2022-10-13T19:06:55.557Z,101953.86
2022-10-13T19:09:25.100Z,101930.98
2022-10-13T19:11:55.847Z,101943.10
2022-10-13T19:14:24.743Z,101950.71
2022-10-13T19:16:52.989Z,101952.29
2022-10-13T19:19:21.324Z,101930.36
2022-10-13T19:21:49.677Z,101947.36
2022-10-13T19:24:17.903Z,101941.78
2022-10-13T19:26:46.422Z,101935.91
2022-10-13T19:29:16.236Z,101935.48
2022-10-13T19:31:44.927Z,101928.02
2022-10-13T19:34:13.820Z,101925.31
2022-10-13T19:36:46.847Z,101931.15
2022-10-13T19:39:22.495Z,101935.10
2022-10-13T19:41:53.010Z,101937.73
2022-10-13T19:44:23.091Z,101913.18
2022-10-13T19:46:53.254Z,101930.32
2022-10-13T19:49:23.523Z,101921.62
2022-10-13T19:51:53.866Z,101917.49
2022-10-13T19:54:23.587Z,101920.77
2022-10-13T19:56:51.883Z,101918.26
2022-10-13T19:59:21.170Z,101917.44
2022-10-13T20:01:49.697Z,101921.52
2022-10-13T20:04:20.598Z,101921.60
2022-10-13T20:06:50.370Z,101923.56
2022-10-13T20:09:19.618Z,101922.11
2022-10-13T20:11:50.840Z,101921.36
2022-10-13T20:14:19.440Z,101921.15
2022-10-13T20:16:48.731Z,101920.17
2022-10-13T20:19:19.911Z,101914.59
2022-10-13T20:21:51.862Z,101910.14
2022-10-13T20:24:21.827Z,101913.51
2022-10-13T20:26:50.456Z,101907.66
2022-10-13T20:29:23.205Z,101906.88
2022-10-13T20:31:51.654Z,101908.27
2022-10-13T20:34:19.805Z,101902.80
2022-10-13T20:36:51.210Z,101902.89
2022-10-13T20:39:20.456Z,101905.30
2022-10-13T20:41:48.705Z,101900.95
2022-10-13T20:44:16.990Z,101903.38
2022-10-13T20:46:45.568Z,101897.55
2022-10-13T20:49:13.842Z,101895.97
2022-10-13T20:51:43.256Z,101894.80
2022-10-13T20:54:13.916Z,101892.12
2022-10-13T20:56:43.102Z,101895.83
2022-10-13T20:59:14.798Z,101893.46
2022-10-13T21:01:43.450Z,101893.11
2022-10-13T21:04:12.025Z,101895.83
2022-10-13T21:06:41.298Z,101891.05
2022-10-13T21:09:10.245Z,101886.48
2022-10-13T21:11:40.684Z,101886.77
2022-10-13T21:14:09.844Z,101885.09
2022-10-13T21:16:40.580Z,101883.41
2022-10-13T21:19:12.784Z,101885.39
2022-10-13T21:21:41.149Z,101883.69
2022-10-13T21:24:10.877Z,101878.50
2022-10-13T21:26:40.642Z,101878.02
2022-10-13T21:29:15.594Z,101876.21
2022-10-13T21:31:43.992Z,101874.38
2022-10-13T21:34:12.774Z,101870.20
2022-10-13T21:36:44.553Z,101875.61
2022-10-13T21:39:14.600Z,101875.47
2022-10-13T21:41:43.439Z,101874.74
2022-10-13T21:44:15.076Z,101872.58
2022-10-13T21:46:43.637Z,101876.56
2022-10-13T21:49:12.016Z,101870.63
2022-10-13T21:51:41.014Z,101870.03
2022-10-13T21:54:12.524Z,101865.44
2022-10-13T21:56:41.904Z,101865.40
2022-10-13T21:59:12.823Z,101859.86
2022-10-13T22:01:41.884Z,101861.43
2022-10-13T22:04:14.660Z,101861.45
2022-10-13T22:06:43.413Z,101857.88
2022-10-13T22:09:12.514Z,101858.73
2022-10-13T22:11:41.522Z,101848.81
2022-10-13T22:14:12.695Z,101855.73
2022-10-13T22:16:49.974Z,101859.20
2022-10-13T22:19:22.666Z,101859.96
2022-10-13T22:21:51.609Z,101859.41
2022-10-13T22:24:21.548Z,101861.23
2022-10-13T22:26:50.472Z,101862.66
2022-10-13T22:29:21.142Z,101864.09
2022-10-13T22:31:50.771Z,101868.48
2022-10-13T22:34:19.064Z,101867.26
2022-10-13T22:36:47.338Z,101869.12
2022-10-13T22:39:16.086Z,101871.13
2022-10-13T22:41:44.999Z,101867.07
2022-10-13T22:44:13.832Z,101867.87
2022-10-13T22:46:42.146Z,101859.22
2022-10-13T22:49:14.812Z,101847.14
2022-10-13T22:51:43.034Z,101854.48
2022-10-13T22:54:12.622Z,101855.17
2022-10-13T22:56:41.572Z,101853.24
2022-10-13T22:59:11.643Z,101852.30
2022-10-13T23:01:40.459Z,101851.63
2022-10-13T23:04:09.301Z,101845.28
2022-10-13T23:06:37.718Z,101836.71
2022-10-13T23:09:10.642Z,101845.94
2022-10-13T23:11:39.810Z,101840.48
2022-10-13T23:14:09.966Z,101840.41
2022-10-13T23:16:38.591Z,101840.63
2022-10-13T23:19:06.970Z,101838.64
2022-10-13T23:21:35.326Z,101841.84
2022-10-13T23:24:06.070Z,101843.10
2022-10-13T23:26:35.147Z,101841.09
2022-10-13T23:29:04.531Z,101833.09
2022-10-13T23:31:33.426Z,101833.96
2022-10-13T23:34:02.027Z,101832.69
2022-10-13T23:36:31.990Z,101829.58
2022-10-13T23:39:03.756Z,101833.10
2022-10-13T23:41:33.980Z,101833.09
2022-10-13T23:44:02.418Z,101834.28
2022-10-13T23:46:31.486Z,101828.11
2022-10-13T23:48:59.908Z,101825.20
2022-10-13T23:51:28.242Z,101819.60
2022-10-13T23:53:56.867Z,101803.65
2022-10-13T23:56:25.368Z,101811.16
2022-10-13T23:58:53.728Z,101809.58
